Aviation Digital Data Service (ADDS)

Output produced by METARs form (0913 UTC 24 March 2019)
found at http://www.aviationweather.gov/metar/data/
 
METAR text: LEGA 240900Z 02003KT 9999 -SHRA BKN066 BKN080 08/04 Q1022
Conditions at: LEGA (ARMILLA (CIV/MIL, ES) observed 0900 UTC 24 March 2019
Temperature: 8.0°C (46°F)
Dewpoint: 4.0°C (39°F) [RH = 76%]
Pressure (altimeter): 30.18 inches Hg (1022.0 mb)
Winds: from the NNE (20 degrees) at 3 MPH (3 knots; 1.5 m/s)
Visibility: 6 or more miles (10+ km)
Ceiling: 6600 feet AGL
Clouds: broken clouds at 6600 feet AGL
broken clouds at 8000 feet AGL
Weather: -SHRA  (light rain showers)

METAR text: LEGA 240800Z 18004KT 9999 BKN068 BKN082 08/04 Q1021
Conditions at: LEGA (ARMILLA (CIV/MIL, ES) observed 0800 UTC 24 March 2019
Temperature: 8.0°C (46°F)
Dewpoint: 4.0°C (39°F) [RH = 76%]
Pressure (altimeter): 30.15 inches Hg (1021.0 mb)
Winds: from the S (180 degrees) at 5 MPH (4 knots; 2.1 m/s)
Visibility: 6 or more miles (10+ km)
Ceiling: 6800 feet AGL
Clouds: broken clouds at 6800 feet AGL
broken clouds at 8200 feet AGL
Weather: no significant weather observed at this time

METAR text: LEGA 240700Z 18005KT 9999 BKN089 06/03 Q1021
Conditions at: LEGA (ARMILLA (CIV/MIL, ES) observed 0700 UTC 24 March 2019
Temperature: 6.0°C (43°F)
Dewpoint: 3.0°C (37°F) [RH = 81%]
Pressure (altimeter): 30.15 inches Hg (1021.0 mb)
Winds: from the S (180 degrees) at 6 MPH (5 knots; 2.6 m/s)
Visibility: 6 or more miles (10+ km)
Ceiling: 8900 feet AGL
Clouds: broken clouds at 8900 feet AGL
Weather: no significant weather observed at this time

METAR text: LEGA 231300Z 19015KT 170V230 9999 SCT055 17/04 Q1021
Conditions at: LEGA (ARMILLA (CIV/MIL, ES) observed 1300 UTC 23 March 2019
Temperature: 17.0°C (63°F)
Dewpoint: 4.0°C (39°F) [RH = 42%]
Pressure (altimeter): 30.15 inches Hg (1021.0 mb)
Winds: from the S (190 degrees) at 17 MPH (15 knots; 7.7 m/s)
Visibility: 6 or more miles (10+ km)
Ceiling: at least 12,000 feet AGL
Clouds: scattered clouds at 5500 feet AGL
Weather: no significant weather observed at this time

METAR text: LEGA 231200Z VRB04KT 9999 BKN056 16/02 Q1022
Conditions at: LEGA (ARMILLA (CIV/MIL, ES) observed 1200 UTC 23 March 2019
Temperature: 16.0°C (61°F)
Dewpoint: 2.0°C (36°F) [RH = 39%]
Pressure (altimeter): 30.18 inches Hg (1022.0 mb)
Winds: variable direction winds at 5 MPH (4 knots; 2.1 m/s)
Visibility: 6 or more miles (10+ km)
Ceiling: 5600 feet AGL
Clouds: broken clouds at 5600 feet AGL
Weather: no significant weather observed at this time

METAR text: LEGA 231100Z 21006KT 180V270 9999 FEW080 16/02 Q1022
Conditions at: LEGA (ARMILLA (CIV/MIL, ES) observed 1100 UTC 23 March 2019
Temperature: 16.0°C (61°F)
Dewpoint: 2.0°C (36°F) [RH = 39%]
Pressure (altimeter): 30.18 inches Hg (1022.0 mb)
Winds: from the SSW (210 degrees) at 7 MPH (6 knots; 3.1 m/s)
Visibility: 6 or more miles (10+ km)
Ceiling: at least 12,000 feet AGL
Clouds: few clouds at 8000 feet AGL
Weather: no significant weather observed at this time

METAR text: LEGA 231000Z VRB03KT CAVOK 14/04 Q1023
Conditions at: LEGA (ARMILLA (CIV/MIL, ES) observed 1000 UTC 23 March 2019
Temperature: 14.0°C (57°F)
Dewpoint: 4.0°C (39°F) [RH = 51%]
Pressure (altimeter): 30.21 inches Hg (1023.0 mb)
Winds: variable direction winds at 3 MPH (3 knots; 1.5 m/s)
Visibility: 6 or more miles (10+ km)
Ceiling: ceiling and visibility are OK
Clouds: unknown
Weather: no significant weather observed at this time

METAR text: LEGA 230900Z 27002KT CAVOK 12/04 Q1023
Conditions at: LEGA (ARMILLA (CIV/MIL, ES) observed 0900 UTC 23 March 2019
Temperature: 12.0°C (54°F)
Dewpoint: 4.0°C (39°F) [RH = 58%]
Pressure (altimeter): 30.21 inches Hg (1023.0 mb)
Winds: from the W (270 degrees) at 2 MPH (2 knots; 1.0 m/s)
Visibility: 6 or more miles (10+ km)
Ceiling: ceiling and visibility are OK
Clouds: unknown
Weather: no significant weather observed at this time

METAR text: LEGA 230800Z VRB03KT CAVOK 08/04 Q1023
Conditions at: LEGA (ARMILLA (CIV/MIL, ES) observed 0800 UTC 23 March 2019
Temperature: 8.0°C (46°F)
Dewpoint: 4.0°C (39°F) [RH = 76%]
Pressure (altimeter): 30.21 inches Hg (1023.0 mb)
Winds: variable direction winds at 3 MPH (3 knots; 1.5 m/s)
Visibility: 6 or more miles (10+ km)
Ceiling: ceiling and visibility are OK
Clouds: unknown
Weather: no significant weather observed at this time

METAR text: LEGA 230700Z 19004KT CAVOK 07/03 Q1023
Conditions at: LEGA (ARMILLA (CIV/MIL, ES) observed 0700 UTC 23 March 2019
Temperature: 7.0°C (45°F)
Dewpoint: 3.0°C (37°F) [RH = 76%]
Pressure (altimeter): 30.21 inches Hg (1023.0 mb)
Winds: from the S (190 degrees) at 5 MPH (4 knots; 2.1 m/s)
Visibility: 6 or more miles (10+ km)
Ceiling: ceiling and visibility are OK
Clouds: unknown
Weather: no significant weather observed at this time

Forecast for: LEGA (ARMILLA (CIV/MIL, ES)
Text: TAF LEGA 240800Z 2409/2418 VRB02KT 9999 SCT040
Forecast period: 0900 to 1800 UTC 24 March 2019
Forecast type: FROM: standard forecast or significant change
Winds: variable direction winds at 2 MPH (2 knots; 1.0 m/s)
Visibility: 6 or more miles 10+ km)
Ceiling: at least 12,000 feet AGL
Clouds: scattered clouds at 4000 feet AGL
Weather: no significant weather forecast for this period
Text: PROB40
Forecast period: 0900 to 1600 UTC 24 March 2019
Forecast type: TEMPORARY: The following changes expected for less than half the time period
Visibility: 2.49 miles (4.01 km)
Ceiling: at least 12,000 feet AGL
Clouds: scattered clouds at 4000 feet AGL
Weather: SHRA  (rain showers)